FNUB

Details ICAO FNUB (SDD)
Name LUBANGO
Region Angola
Timezone Africa/Luanda (UTC+1.0)
Plans Departing 26
Arriving 28
Stats Elevation 5,778 ft / 1,761 m (AMSL)
Location -14.924734° 13.575022°
Runways 1
Magnetic Variation 6.440° W
Sunrise 2017-12-17 04:32:57 UTC / 2017-12-17 05:32:57 Local
Sunset 2017-12-17 17:33:24 UTC / 2017-12-17 18:33:24 Local
Advertisement - Login to hide

Runways

ID Width Length Bearing (true) Bearing (mag) Surface Threshold Offset Overrun Length
10 148 ft / 45 m 9,639 ft / 2,938 m 88.44° 94.88° Asphalt 0 ft / 0 m 165 ft / 50 m
28 148 ft / 45 m 9,639 ft / 2,938 m 268.44° 274.88° Asphalt 0 ft / 0 m 165 ft / 50 m

Map

Weather


0- 5 10 15 20 25 30 35+ Temperature / ° C

Clouds and Precipitation
Forecast for 2017-12-17 12:00 UTC. Updated an hour ago

Ground ~20,000 ft ~40,000 ft Winds

METAR

FNUB 171000Z 03012KT 9999 SCT030 FEW030CB 23/// Q1023

TAF

TAF FNUB 162300Z 1700/1712 VRB03KT 7000 DZ FEW013 BKN022 TEMPO 1703/1707 VRB03KT 9999 FEW007 SCT080

Frequencies

Tower 118.90 MHz AFIS
Warning: Do not use this data for real-world aviation or navigation. No guarantee of current accuracy is given.